Aviation Digital Data Service (ADDS)

Output produced by METARs form (0748 UTC 23 July 2014)
found at http://www.aviationweather.gov/adds/metars/
 
KMIV 230654Z AUTO 24003KT 10SM CLR 21/19 A3005 RMK AO2 SLP175 T02110194
KMIV 230539Z 2306/2406 00000KT P6SM SKC 
     TEMPO 2308/2312 4SM BR 
     FM231400 22006KT P6SM FEW050 
     FM240000 19003KT P6SM SCT050 BKN250